^^
Saratoga-Weather Station Historical Data
Daily Summary for March 3, 2021 Units:  English    Metric   Both
Daily Weekly Monthly Yearly Custom
  High: Low: Average:
Temperature: 34.3 °F 31.5 °F 33.6 °F
Dew Point: 32 °F 29.5 °F 31.3 °F
Humidity: 94% 88% 91%
Wind Speed: 6.9mph 0mph 1.1mph
Wind Gust: 10mph - -
Wind- - West
Pressure: 30 in 29.9 in -
Precipitation: 0 in    
Historical Graphs
 
 
Tabular Data for March 3, 2021
Time Temperature Dew Point Pressure Wind Wind Speed Wind Gust Humidity Rainfall Rate (Hourly) solar
00:03 34 °F 30.7 °F 29.9 in Calm   1 mph 88% 0 in 0 W/m2
00:08 33.6 °F 30.4 °F 29.9 in Calm     88% 0 in 0 W/m2
00:13 33.6 °F 30.7 °F 29.9 in West 0.9 mph 1 mph 89% 0 in 0 W/m2
00:18 33.4 °F 30.6 °F 29.9 in Calm     89% 0 in 0 W/m2
00:23 33.3 °F 30.6 °F 29.9 in Calm     90% 0 in 0 W/m2
00:28 33.1 °F 30.7 °F 29.9 in Calm     91% 0 in 0 W/m2
00:33 33.1 °F 30.7 °F 29.9 in Calm     91% 0 in 0 W/m2
00:38 33.1 °F 31.1 °F 29.9 in Calm   1 mph 92% 0 in 0 W/m2
00:43 33.1 °F 31.1 °F 29.9 in Calm   2 mph 92% 0 in 0 W/m2
00:48 33.3 °F 31.1 °F 29.9 in WNW 0.9 mph 3 mph 92% 0 in 0 W/m2
00:53 33.4 °F 31.3 °F 29.9 in Calm   1 mph 92% 0 in 0 W/m2
00:58 33.6 °F 31.5 °F 29.9 in Calm     92% 0 in 0 W/m2
01:03 33.8 °F 31.6 °F 29.9 in Calm     92% 0 in 0 W/m2
01:08 33.8 °F 31.5 °F 29.9 in West 0.9 mph 1 mph 91% 0 in 0 W/m2
01:13 33.8 °F 31.5 °F 29.9 in Calm     91% 0 in 0 W/m2
01:18 34 °F 31.6 °F 29.9 in West 0.9 mph 1 mph 91% 0 in 0 W/m2
01:23 34 °F 31.6 °F 29.9 in Calm   2 mph 91% 0 in 0 W/m2
01:28 34.2 °F 31.8 °F 29.9 in West 0.9 mph 2 mph 91% 0 in 0 W/m2
01:33 34.2 °F 31.8 °F 29.9 in West 0.9 mph 1 mph 91% 0 in 0 W/m2
01:38 34.3 °F 32 °F 29.9 in Calm   2 mph 91% 0 in 0 W/m2
01:43 34.2 °F 31.5 °F 29.9 in WNW 2 mph 3 mph 90% 0 in 0 W/m2
01:48 34.2 °F 31.5 °F 29.9 in Calm   3 mph 90% 0 in 0 W/m2
01:53 34.2 °F 31.5 °F 29.9 in West 2 mph 7 mph 90% 0 in 0 W/m2
01:58 34.3 °F 31.6 °F 29.9 in WNW 6 mph 9 mph 90% 0 in 0 W/m2
02:03 34.3 °F 31.5 °F 29.9 in West 2 mph 4 mph 89% 0 in 0 W/m2
02:08 34.3 °F 31.5 °F 29.9 in SW 2 mph 8 mph 89% 0 in 0 W/m2
02:13 34.3 °F 31.5 °F 29.9 in West 2 mph 7 mph 89% 0 in 0 W/m2
02:18 34.2 °F 31.3 °F 29.9 in West 0.9 mph 3 mph 89% 0 in 0 W/m2
02:23 34 °F 31.1 °F 29.9 in WSW 2 mph 7 mph 89% 0 in 0 W/m2
02:28 34 °F 31.1 °F 29.9 in West 0.9 mph 2 mph 89% 0 in 0 W/m2
02:33 33.6 °F 30.7 °F 29.9 in Calm   7 mph 89% 0 in 0 W/m2
02:38 33.4 °F 30.6 °F 29.9 in Calm   1 mph 89% 0 in 0 W/m2
02:43 33.3 °F 30.6 °F 29.9 in SW 0.9 mph 1 mph 90% 0 in 0 W/m2
02:48 33.3 °F 30.6 °F 29.9 in Calm   2 mph 90% 0 in 0 W/m2
02:53 33.1 °F 30.4 °F 29.9 in Calm   2 mph 90% 0 in 0 W/m2
02:58 32.9 °F 30.4 °F 29.9 in Calm   2 mph 90% 0 in 0 W/m2
03:03 32.7 °F 30.4 °F 29.9 in Calm   1 mph 91% 0 in 0 W/m2
03:08 32.5 °F 30.2 °F 29.9 in Calm   1 mph 91% 0 in 0 W/m2
03:13 32.5 °F 30.2 °F 29.9 in Calm     91% 0 in 0 W/m2
03:18 32.4 °F 30 °F 29.9 in Calm     91% 0 in 0 W/m2
03:23 32.2 °F 29.8 °F 29.9 in Calm     91% 0 in 0 W/m2
03:28 32.2 °F 30.2 °F 29.9 in South 0.9 mph 2 mph 92% 0 in 0 W/m2
03:33 32 °F 30 °F 29.9 in Calm     92% 0 in 0 W/m2
03:38 31.8 °F 29.8 °F 29.9 in Calm   2 mph 92% 0 in 0 W/m2
03:43 31.6 °F 29.7 °F 29.9 in Calm   1 mph 92% 0 in 0 W/m2
03:49 31.6 °F 29.7 °F 29.9 in SSE 0.9 mph 2 mph 92% 0 in 0 W/m2
03:54 31.5 °F 29.5 °F 29.9 in SSE 0.9 mph 2 mph 92% 0 in 0 W/m2
03:59 31.5 °F 29.7 °F 29.9 in SW 0.9 mph 3 mph 93% 0 in 0 W/m2
04:04 31.6 °F 29.8 °F 29.9 in SE 2 mph 3 mph 93% 0 in 0 W/m2
04:09 31.6 °F 29.8 °F 29.9 in Calm   2 mph 93% 0 in 0 W/m2
04:14 32 °F 30.2 °F 29.9 in WSW 2 mph 5 mph 93% 0 in 0 W/m2
04:19 32.4 °F 30.6 °F 29.9 in Calm   2 mph 93% 0 in 0 W/m2
04:24 32.5 °F 30.9 °F 29.9 in SW 0.9 mph 7 mph 94% 0 in 0 W/m2
04:29 32.7 °F 30.9 °F 29.9 in WSW 2.9 mph 6 mph 93% 0 in 0 W/m2
04:34 33.1 °F 31.3 °F 29.9 in WSW 0.9 mph 6 mph 93% 0 in 0 W/m2
04:39 33.3 °F 31.5 °F 29.9 in WSW 2 mph 4 mph 93% 0 in 0 W/m2
04:44 33.3 °F 31.5 °F 29.9 in WSW 2 mph 7 mph 93% 0 in 0 W/m2
04:49 33.4 °F 31.6 °F 29.9 in Calm   4 mph 93% 0 in 0 W/m2
04:54 33.4 °F 31.3 °F 29.9 in West 2.9 mph 10 mph 92% 0 in 0 W/m2
04:59 33.6 °F 31.5 °F 29.9 in WSW 2.9 mph 9 mph 92% 0 in 0 W/m2
05:04 33.6 °F 31.5 °F 29.9 in WNW 2 mph 4 mph 92% 0 in 0 W/m2
05:09 33.6 °F 31.5 °F 29.9 in WNW 4 mph 9 mph 92% 0 in 0 W/m2
05:14 33.6 °F 31.5 °F 29.9 in WNW 2.9 mph 6 mph 92% 0 in 0 W/m2
05:19 33.6 °F 31.5 °F 29.9 in West 4 mph 6 mph 92% 0 in 0 W/m2
05:24 33.6 °F 31.5 °F 29.9 in WNW 6.9 mph 9 mph 92% 0 in 0 W/m2
05:29 33.8 °F 31.6 °F 29.9 in West 2.9 mph 7 mph 92% 0 in 0 W/m2
05:34 34 °F 31.8 °F 29.9 in WNW 2.9 mph 9 mph 92% 0 in 0 W/m2
05:39 34 °F 31.6 °F 29.9 in Calm   5 mph 91% 0 in 0 W/m2
05:44 34.2 °F 31.8 °F 29.9 in West 0.9 mph 5 mph 91% 0 in 0 W/m2
05:49 34.2 °F 31.8 °F 29.9 in WNW 2 mph 4 mph 91% 0 in 0 W/m2
05:54 34.2 °F 31.8 °F 29.9 in Calm   2 mph 91% 0 in 0 W/m2
05:59 34.2 °F 31.8 °F 29.9 in WNW 2 mph 4 mph 91% 0 in 0 W/m2
06:04 34.3 °F 32 °F 29.9 in NNW 0.9 mph 2 mph 91% 0 in 0 W/m2
06:09 34.3 °F 32 °F 29.9 in NW 4.9 mph 5 mph 91% 0 in 0 W/m2
06:14 34.3 °F 32 °F 29.9 in WNW 2.9 mph 5 mph 91% 0 in 0 W/m2
06:19 34.3 °F 31.6 °F 29.9 in Calm   2 mph 90% 0 in 0 W/m2
06:24 34.3 °F 31.6 °F 29.9 in WSW 0.9 mph 3 mph 90% 0 in 0 W/m2
06:29 34.3 °F 31.6 °F 29.9 in Calm   5 mph 90% 0 in 0 W/m2
06:34 34.3 °F 31.6 °F 29.9 in West 0.9 mph 2 mph 90% 0 in 0 W/m2
06:39 34.3 °F 31.6 °F 29.9 in Calm   1 mph 90% 0 in 0 W/m2
06:44 34.3 °F 32 °F 29.9 in West 0.9 mph 4 mph 91% 0 in 0 W/m2
06:49 34.3 °F 32 °F 29.9 in Calm   2 mph 91% 0 in 0 W/m2
06:54 34.3 °F 32 °F 29.9 in West 2.9 mph 6 mph 91% 0 in 0 W/m2
06:59 34.3 °F 32 °F 29.9 in West 4 mph 4 mph 91% 0 in 0 W/m2
07:04 34.3 °F 32 °F 29.9 in Calm     91% 0 in 0 W/m2
07:09 34.2 °F 31.8 °F 30 in Calm   1 mph 91% 0 in 0 W/m2
07:14 34.3 °F 32 °F 30 in North 0.9 mph 3 mph 91% 0 in 0 W/m2
07:19 34.2 °F 31.8 °F 30 in WSW 0.9 mph 2 mph 91% 0 in 0 W/m2
07:24 34.3 °F 31.6 °F 30 in WNW 0.9 mph 3 mph 90% 0 in 0 W/m2
07:29 34.3 °F 32 °F 30 in WNW 2 mph 3 mph 91% 0 in 0 W/m2
07:34 34.3 °F 32 °F 30 in Calm   3 mph 91% 0 in 0 W/m2
07:39 34.3 °F 32 °F 30 in Calm   2 mph 91% 0 in 0 W/m2
07:44 34.3 °F 32 °F 30 in Calm   2 mph 91% 0 in 0 W/m2
07:49 34.3 °F 32 °F 30 in Calm     91% 0 in 0 W/m2
07:54 34.3 °F 32 °F 30 in WNW 2 mph 4 mph 91% 0 in 0 W/m2
07:59 34.3 °F 32 °F 30 in WNW 0.9 mph 4 mph 91% 0 in 0 W/m2
Juneau County Weather
Compliments of Weather Underground - 2 mb